Time;durP1;ratioP1;P1;durP2;ratioP2;P2;SDS_P1;SDS_P2;PMS_P1;PMS_P2;Temp;Humidity;BMP_temperature;BMP_pressure;BME280_temperature;BME280_humidity;BME280_pressure;Samples;Min_cycle;Max_cycle;Signal;HPM_P1;HPM_P2
2021/07/16 00:01:13;;;;;;;14.68;8.32;;;;;;;26.06;54.64;100283.16;5009331;28;20034;-68
2021/07/16 00:03:41;;;;;;;13.95;8.77;;;;;;;26.07;54.09;100281.34;5008843;28;20450;-69
2021/07/16 00:06:09;;;;;;;14.75;8.80;;;;;;;26.04;54.17;100284.22;4992675;28;20049;-69
2021/07/16 00:08:37;;;;;;;16.63;8.52;;;;;;;25.93;54.71;100283.97;5009586;28;20398;-69
2021/07/16 00:11:04;;;;;;;17.77;8.80;;;;;;;25.91;54.69;100281.34;5008912;28;20062;-68
2021/07/16 00:13:37;;;;;;;12.15;8.70;;;;;;;25.95;54.50;100291.00;5010097;28;20129;-68
2021/07/16 00:16:07;;;;;;;13.53;8.20;;;;;;;25.93;54.57;100282.09;5009521;28;20498;-69
2021/07/16 00:18:34;;;;;;;15.52;9.35;;;;;;;25.79;54.90;100279.31;5009449;28;20136;-69
2021/07/16 00:21:03;;;;;;;13.07;8.02;;;;;;;25.75;54.95;100275.88;5010243;28;20582;-69
2021/07/16 00:23:33;;;;;;;17.70;8.90;;;;;;;25.72;54.97;100278.78;5008923;28;20045;-68
2021/07/16 00:26:00;;;;;;;16.67;8.32;;;;;;;25.87;54.32;100276.16;5009203;28;20574;-69
2021/07/16 00:28:27;;;;;;;16.77;9.05;;;;;;;25.65;54.89;100271.06;5009550;28;20109;-69
2021/07/16 00:30:55;;;;;;;15.43;8.13;;;;;;;25.54;55.26;100274.31;5008931;28;20113;-69
2021/07/16 00:33:24;;;;;;;14.15;9.40;;;;;;;25.60;55.04;100275.88;5008405;28;20038;-69
2021/07/16 00:35:53;;;;;;;15.93;8.23;;;;;;;25.68;54.68;100273.59;5008579;28;20447;-69
2021/07/16 00:38:21;;;;;;;15.90;9.02;;;;;;;25.72;54.45;100276.06;5010050;28;20069;-68
2021/07/16 00:40:52;;;;;;;18.85;9.50;;;;;;;25.56;54.76;100271.53;5009071;28;20125;-68
2021/07/16 00:43:20;;;;;;;13.18;8.93;;;;;;;25.48;55.14;100271.06;5003407;28;20128;-69
2021/07/16 00:45:49;;;;;;;14.52;9.13;;;;;;;25.47;55.14;100274.75;5009673;28;20463;-68
2021/07/16 00:48:19;;;;;;;11.98;7.63;;;;;;;25.45;54.84;100269.41;5008726;28;20149;-68
2021/07/16 00:50:49;;;;;;;16.80;7.82;;;;;;;25.56;54.51;100275.09;4992703;28;20042;-69
2021/07/16 00:53:20;;;;;;;15.55;8.10;;;;;;;25.59;54.18;100271.41;5008479;28;20096;-68
2021/07/16 00:55:48;;;;;;;14.10;8.20;;;;;;;25.56;54.04;100275.09;5009609;28;20048;-68
2021/07/16 00:58:18;;;;;;;12.40;7.68;;;;;;;25.59;53.96;100274.13;5009599;28;20076;-68
2021/07/16 01:00:47;;;;;;;13.52;7.30;;;;;;;25.60;53.67;100265.88;5011217;28;20137;-68
2021/07/16 01:03:16;;;;;;;14.65;8.07;;;;;;;25.64;53.67;100272.03;5012249;28;20131;-69
2021/07/16 01:05:45;;;;;;;13.25;7.93;;;;;;;25.63;53.63;100272.97;5013406;28;20130;-68
2021/07/16 01:08:14;;;;;;;11.80;7.57;;;;;;;25.60;53.67;100276.69;5012335;28;20042;-68
2021/07/16 01:10:42;;;;;;;14.27;7.85;;;;;;;25.55;53.55;100269.78;5012711;28;20105;-68
2021/07/16 01:13:13;;;;;;;11.25;7.47;;;;;;;25.49;53.79;100272.81;5013389;28;20049;-68
2021/07/16 01:15:41;;;;;;;14.50;7.70;;;;;;;25.49;53.81;100268.28;5013200;28;20042;-68
2021/07/16 01:18:10;;;;;;;11.82;7.53;;;;;;;25.47;53.84;100266.63;5012964;28;20038;-69
2021/07/16 01:20:39;;;;;;;13.75;7.88;;;;;;;25.39;53.86;100270.63;4994503;28;20042;-69
2021/07/16 01:23:27;;;;;;;15.18;7.90;;;;;;;25.32;53.79;100262.91;5012892;28;20057;-69
2021/07/16 01:25:55;;;;;;;13.98;8.27;;;;;;;25.27;54.13;100271.25;5011943;28;20129;-68
2021/07/16 01:28:23;;;;;;;15.35;8.27;;;;;;;25.29;53.87;100266.63;5011897;28;20057;-68
2021/07/16 01:30:53;;;;;;;15.95;7.97;;;;;;;25.23;54.11;100266.97;5010331;28;20466;-68
2021/07/16 01:33:22;;;;;;;13.07;7.65;;;;;;;25.26;54.02;100261.41;5012523;28;20042;-69
2021/07/16 01:35:49;;;;;;;16.77;7.72;;;;;;;25.27;54.14;100270.41;5012591;28;20056;-68
2021/07/16 01:38:19;;;;;;;13.52;8.30;;;;;;;25.27;53.95;100260.44;5011159;28;20113;-68
2021/07/16 01:40:47;;;;;;;13.77;8.02;;;;;;;25.24;54.01;100257.91;5004285;28;20570;-68
2021/07/16 01:43:15;;;;;;;15.90;8.35;;;;;;;25.23;54.12;100260.69;5009325;28;20462;-69
2021/07/16 01:45:44;;;;;;;14.27;7.78;;;;;;;25.24;54.07;100257.91;5012944;28;20042;-68
2021/07/16 01:48:13;;;;;;;12.55;8.60;;;;;;;25.28;53.94;100266.72;5012306;28;20065;-68
2021/07/16 01:50:45;;;;;;;16.13;8.27;;;;;;;25.27;53.87;100262.28;5010760;28;20132;-69
2021/07/16 01:53:15;;;;;;;14.38;7.57;;;;;;;25.22;54.00;100262.50;5012669;28;20045;-68
2021/07/16 01:55:44;;;;;;;12.85;7.63;;;;;;;25.13;54.35;100271.13;5011625;28;20046;-69
2021/07/16 01:58:15;;;;;;;11.38;7.30;;;;;;;25.15;54.09;100250.28;5011361;28;20499;-68
2021/07/16 02:00:44;;;;;;;12.95;7.53;;;;;;;25.17;54.00;100252.91;5011101;28;20066;-69
2021/07/16 02:03:15;;;;;;;12.57;7.68;;;;;;;25.17;54.30;100261.00;4992396;28;20046;-68
2021/07/16 02:05:46;;;;;;;14.73;8.40;;;;;;;25.19;53.92;100260.00;4996590;28;20048;-68
2021/07/16 02:08:18;;;;;;;17.02;7.68;;;;;;;25.20;53.92;100255.47;5010058;28;20145;-68
2021/07/16 02:10:49;;;;;;;14.93;7.68;;;;;;;25.14;54.19;100264.72;5009100;28;20042;-69
2021/07/16 02:13:17;;;;;;;14.85;8.30;;;;;;;25.10;54.25;100252.34;5011703;28;20117;-68
2021/07/16 02:15:48;;;;;;;12.15;7.72;;;;;;;25.04;54.62;100255.38;5012609;28;20463;-69
2021/07/16 02:18:17;;;;;;;17.20;8.13;;;;;;;24.98;54.47;100250.28;4993108;28;20120;-68
2021/07/16 02:20:45;;;;;;;11.63;7.28;;;;;;;24.94;54.70;100252.25;5011541;28;20129;-69
2021/07/16 02:23:17;;;;;;;13.50;7.47;;;;;;;24.81;54.92;100251.13;5011838;28;20073;-68
2021/07/16 02:25:47;;;;;;;14.25;7.50;;;;;;;24.78;54.77;100251.28;5010908;28;20046;-68
2021/07/16 02:28:18;;;;;;;13.52;7.10;;;;;;;24.66;55.03;100248.34;5011201;28;20044;-68
2021/07/16 02:30:47;;;;;;;11.13;7.03;;;;;;;24.53;55.41;100256.19;4993592;28;20050;-68
2021/07/16 02:33:15;;;;;;;12.93;7.43;;;;;;;24.53;55.78;100258.88;5011710;28;20042;-68
2021/07/16 02:35:45;;;;;;;16.73;7.63;;;;;;;24.60;55.35;100255.81;5011411;28;20049;-68
2021/07/16 02:38:14;;;;;;;13.27;7.50;;;;;;;24.50;55.68;100259.91;5006392;28;20057;-68
2021/07/16 02:40:43;;;;;;;13.98;7.50;;;;;;;24.41;55.89;100254.09;5010592;28;20129;-68
2021/07/16 02:43:14;;;;;;;12.88;7.88;;;;;;;24.37;55.92;100261.44;5010945;28;20505;-68
2021/07/16 02:45:43;;;;;;;15.50;7.82;;;;;;;24.47;55.88;100259.19;5011199;28;20065;-68
2021/07/16 02:48:11;;;;;;;12.25;8.30;;;;;;;24.49;56.01;100257.28;5011167;28;20064;-68
2021/07/16 02:50:40;;;;;;;11.77;7.72;;;;;;;24.48;56.08;100264.50;5010084;28;20525;-68
2021/07/16 02:53:09;;;;;;;11.93;7.35;;;;;;;24.47;56.08;100260.06;5011061;28;20125;-68
2021/07/16 02:55:38;;;;;;;14.05;7.00;;;;;;;24.45;56.21;100258.38;5010794;28;20096;-68
2021/07/16 02:58:08;;;;;;;15.90;8.65;;;;;;;24.25;56.71;100262.06;4992065;28;20045;-68
2021/07/16 03:00:38;;;;;;;14.32;7.75;;;;;;;24.04;57.11;100255.84;5008610;28;20048;-68
2021/07/16 03:03:06;;;;;;;12.20;7.03;;;;;;;23.96;57.38;100259.88;5011012;28;20053;-68
2021/07/16 03:05:36;;;;;;;16.70;7.80;;;;;;;24.04;57.19;100263.06;5010975;28;20044;-68
2021/07/16 03:08:05;;;;;;;15.75;7.53;;;;;;;24.16;56.88;100265.16;5010028;28;20499;-68
2021/07/16 03:10:34;;;;;;;12.93;7.57;;;;;;;24.18;56.69;100264.16;5009389;28;20376;-68
2021/07/16 03:13:06;;;;;;;11.43;6.60;;;;;;;24.19;56.52;100268.63;5010465;28;20399;-68
2021/07/16 03:15:36;;;;;;;16.95;8.13;;;;;;;24.16;56.81;100270.56;5009916;28;20499;-68
2021/07/16 03:18:05;;;;;;;14.25;7.47;;;;;;;24.08;57.41;100278.16;5009469;28;20044;-68
2021/07/16 03:20:34;;;;;;;13.27;7.95;;;;;;;24.12;57.25;100267.13;5007693;28;20034;-69
2021/07/16 03:23:02;;;;;;;11.15;8.18;;;;;;;24.11;57.26;100268.09;5008351;28;20403;-68
2021/07/16 03:25:30;;;;;;;13.60;8.05;;;;;;;24.18;57.10;100274.94;5009888;28;20599;-69
2021/07/16 03:27:58;;;;;;;15.88;7.55;;;;;;;24.24;56.86;100276.50;4993051;28;20038;-68
2021/07/16 03:30:28;;;;;;;15.25;7.60;;;;;;;24.35;57.08;100276.84;5009986;28;20042;-68
2021/07/16 03:32:59;;;;;;;14.85;8.30;;;;;;;24.44;56.94;100279.09;5011181;28;20117;-68
2021/07/16 03:35:27;;;;;;;17.38;7.95;;;;;;;24.52;56.92;100279.59;5009825;28;20034;-68
2021/07/16 03:37:55;;;;;;;16.17;7.05;;;;;;;24.68;56.59;100278.84;5010489;28;20069;-68
2021/07/16 03:40:27;;;;;;;12.82;6.55;;;;;;;24.84;56.41;100282.50;5009680;28;20423;-69
2021/07/16 03:42:56;;;;;;;11.40;7.20;;;;;;;24.95;55.95;100281.03;5010274;28;20050;-68
2021/07/16 03:45:23;;;;;;;16.30;7.32;;;;;;;24.91;56.09;100275.88;5010254;28;20050;-68
2021/07/16 03:47:51;;;;;;;13.38;6.90;;;;;;;25.05;56.15;100280.56;5009374;28;20037;-68
2021/07/16 03:50:23;;;;;;;12.27;6.65;;;;;;;25.22;55.90;100284.13;4991982;28;20125;-68
2021/07/16 03:52:53;;;;;;;11.68;6.93;;;;;;;25.32;55.63;100277.31;4992929;28;20487;-69
2021/07/16 03:55:21;;;;;;;13.60;6.50;;;;;;;25.49;55.47;100275.50;5009871;28;20042;-69
2021/07/16 03:57:51;;;;;;;12.60;6.68;;;;;;;25.70;55.07;100277.09;5009380;28;20124;-68
2021/07/16 04:00:23;;;;;;;11.02;6.25;;;;;;;25.93;54.76;100279.41;5008558;28;20038;-68
2021/07/16 04:02:51;;;;;;;15.48;6.88;;;;;;;26.12;54.33;100268.44;5010106;28;20148;-69
2021/07/16 04:05:20;;;;;;;12.55;5.80;;;;;;;26.36;53.98;100274.31;5009599;28;20092;-69
2021/07/16 04:07:49;;;;;;;12.27;6.25;;;;;;;26.40;53.98;100274.03;5008995;28;20065;-69
2021/07/16 04:10:21;;;;;;;15.43;6.40;;;;;;;26.47;53.50;100264.59;5009598;28;20069;-69
2021/07/16 04:12:53;;;;;;;10.23;4.78;;;;;;;26.64;53.29;100266.34;5009671;28;20088;-69
2021/07/16 04:15:22;;;;;;;10.45;5.80;;;;;;;26.85;52.90;100264.19;5009497;28;20438;-69
2021/07/16 04:17:50;;;;;;;11.90;6.53;;;;;;;27.13;52.08;100274.28;5009385;28;20121;-69
2021/07/16 04:20:17;;;;;;;8.55;5.20;;;;;;;27.30;51.24;100266.00;5009834;28;20038;-69
2021/07/16 04:22:48;;;;;;;9.57;4.72;;;;;;;27.53;51.37;100262.75;5010055;28;20046;-69
2021/07/16 04:25:18;;;;;;;10.60;5.40;;;;;;;27.66;50.96;100258.31;4994134;28;20122;-69
2021/07/16 04:27:47;;;;;;;15.93;5.82;;;;;;;27.88;51.07;100268.69;5010110;28;20064;-69
2021/07/16 04:30:17;;;;;;;15.50;5.57;;;;;;;28.12;50.60;100266.22;4999079;28;20038;-69
2021/07/16 04:32:45;;;;;;;14.02;5.72;;;;;;;28.32;49.45;100268.53;5010271;28;20503;-69
2021/07/16 04:35:14;;;;;;;11.27;5.57;;;;;;;28.41;49.63;100270.66;5014413;28;20068;-69
2021/07/16 04:37:41;;;;;;;14.20;5.43;;;;;;;28.46;49.05;100278.50;5012379;28;20164;-69
2021/07/16 04:40:15;;;;;;;10.35;4.88;;;;;;;28.72;48.07;100272.19;5012618;28;20038;-70
2021/07/16 04:42:43;;;;;;;;;;;;;;;28.92;47.60;100273.59;5002696;28;20042;-69
2021/07/16 04:45:13;;;;;;;11.65;5.07;;;;;;;29.18;47.44;100269.94;5013507;28;20028;-70
2021/07/16 04:47:42;;;;;;;11.70;5.45;;;;;;;29.44;47.05;100270.88;5012633;28;20046;-69
2021/07/16 04:50:14;;;;;;;11.82;5.45;;;;;;;29.76;46.84;100270.44;5010723;28;20040;-69
2021/07/16 04:52:44;;;;;;;10.68;5.03;;;;;;;30.10;46.04;100264.31;5012625;28;20125;-69
2021/07/16 04:55:15;;;;;;;11.55;4.72;;;;;;;30.35;44.87;100268.81;5013917;28;20081;-69
2021/07/16 04:57:43;;;;;;;8.18;4.20;;;;;;;30.75;44.19;100264.88;4993136;28;20101;-70
2021/07/16 05:00:13;;;;;;;9.90;3.75;;;;;;;31.10;42.90;100267.66;5010615;28;20101;-70
2021/07/16 05:02:41;;;;;;;10.10;4.35;;;;;;;31.33;42.92;100273.16;5012179;28;20042;-69
2021/07/16 05:05:21;;;;;;;12.13;4.63;;;;;;;31.66;41.71;100274.13;5012662;28;20117;-69
2021/07/16 05:07:49;;;;;;;9.82;4.20;;;;;;;31.94;40.82;100274.63;5003088;28;20128;-69
2021/07/16 05:10:18;;;;;;;12.30;4.60;;;;;;;32.22;40.01;100271.44;5012799;28;20495;-69
2021/07/16 05:12:45;;;;;;;7.43;3.80;;;;;;;32.40;39.79;100272.63;5011729;28;20510;-69
2021/07/16 05:15:13;;;;;;;12.05;4.13;;;;;;;32.60;39.52;100260.03;5013201;28;20495;-70
2021/07/16 05:17:41;;;;;;;10.38;4.32;;;;;;;32.75;38.49;100260.66;5011703;28;20125;-69
2021/07/16 05:20:10;;;;;;;8.30;4.13;;;;;;;32.92;38.57;100271.00;5012350;28;20053;-69
2021/07/16 05:22:38;;;;;;;9.20;4.13;;;;;;;33.16;37.56;100266.16;5011993;28;20560;-69
2021/07/16 05:25:08;;;;;;;7.80;4.32;;;;;;;33.39;37.45;100283.38;5012601;28;20149;-69
2021/07/16 05:27:39;;;;;;;10.55;3.92;;;;;;;33.66;36.86;100282.81;5010918;28;20500;-68
2021/07/16 05:30:08;;;;;;;8.23;4.47;;;;;;;33.93;36.88;100285.88;5012139;28;20041;-69
2021/07/16 05:32:35;;;;;;;8.68;3.85;;;;;;;34.09;36.24;100279.00;5011322;28;20112;-69
2021/07/16 05:35:03;;;;;;;9.35;4.72;;;;;;;34.25;35.57;100288.47;5010292;28;20107;-69
2021/07/16 05:37:31;;;;;;;10.20;4.20;;;;;;;34.46;35.55;100291.16;5012730;28;20039;-69
2021/07/16 05:39:58;;;;;;;10.55;4.15;;;;;;;34.71;34.81;100285.16;5012842;28;20403;-69
2021/07/16 05:42:26;;;;;;;7.70;4.00;;;;;;;34.89;34.25;100279.81;5011357;28;20034;-69
2021/07/16 05:44:55;;;;;;;12.73;4.68;;;;;;;35.03;33.60;100284.00;5011685;28;20053;-69
2021/07/16 05:47:23;;;;;;;7.75;3.80;;;;;;;35.10;33.59;100280.56;5009547;28;20125;-69
2021/07/16 05:49:53;;;;;;;13.18;4.82;;;;;;;35.31;33.17;100277.69;5011783;28;20056;-68
2021/07/16 05:52:20;;;;;;;11.02;4.10;;;;;;;35.53;32.81;100282.84;5012401;28;20084;-69
2021/07/16 05:54:48;;;;;;;11.35;4.20;;;;;;;35.69;32.60;100279.50;5004052;28;20042;-69
2021/07/16 05:57:16;;;;;;;12.32;4.05;;;;;;;36.01;32.54;100279.09;5009697;28;20105;-69
2021/07/16 05:59:43;;;;;;;9.13;4.20;;;;;;;36.18;31.85;100275.56;5011546;28;20042;-69
2021/07/16 06:02:13;;;;;;;14.70;4.78;;;;;;;36.17;31.98;100271.09;5010934;28;20052;-69
2021/07/16 06:04:43;;;;;;;8.32;3.75;;;;;;;36.26;31.81;100274.81;5007302;28;20050;-69
2021/07/16 06:07:10;;;;;;;10.27;3.65;;;;;;;36.30;31.58;100271.59;4994789;28;20113;-68
2021/07/16 06:09:38;;;;;;;9.27;4.05;;;;;;;36.41;31.48;100269.66;5011410;28;20128;-69
2021/07/16 06:12:07;;;;;;;8.73;4.20;;;;;;;36.56;31.40;100277.22;5010687;28;20100;-69
2021/07/16 06:14:37;;;;;;;8.48;3.95;;;;;;;36.71;31.00;100274.84;5014234;28;20069;-69
2021/07/16 06:17:04;;;;;;;11.98;4.05;;;;;;;36.85;30.76;100270.69;5012291;28;20065;-69
2021/07/16 06:19:34;;;;;;;8.45;3.85;;;;;;;36.88;30.92;100265.75;5011943;28;20133;-69
2021/07/16 06:22:02;;;;;;;9.90;4.60;;;;;;;37.11;30.53;100264.25;5011622;28;20046;-69
2021/07/16 06:24:31;;;;;;;7.82;4.47;;;;;;;37.18;29.94;100258.13;5011530;28;20041;-69
2021/07/16 06:26:59;;;;;;;10.88;4.45;;;;;;;37.28;29.96;100267.16;5011297;28;20435;-69
2021/07/16 06:29:28;;;;;;;15.73;4.90;;;;;;;37.46;29.57;100255.06;5011796;28;20454;-69
2021/07/16 06:31:56;;;;;;;9.63;3.97;;;;;;;37.62;29.21;100257.09;5011161;28;20049;-69
2021/07/16 06:34:24;;;;;;;9.27;4.20;;;;;;;37.50;29.44;100261.13;5009848;28;20550;-69
2021/07/16 06:36:53;;;;;;;11.45;4.20;;;;;;;37.49;29.03;100264.88;5010958;28;20133;-69
2021/07/16 06:39:20;;;;;;;8.35;3.42;;;;;;;37.38;29.31;100255.00;5012291;28;20033;-69
2021/07/16 06:41:48;;;;;;;8.95;3.92;;;;;;;37.45;29.28;100267.13;5010861;28;20113;-70
2021/07/16 06:44:16;;;;;;;11.85;3.85;;;;;;;37.46;29.13;100271.63;5008848;28;20038;-69
2021/07/16 06:46:44;;;;;;;7.13;3.63;;;;;;;37.58;29.17;100268.63;5000223;28;20129;-70
2021/07/16 06:49:11;;;;;;;11.07;3.72;;;;;;;37.76;29.18;100273.03;5010939;28;20486;-69
2021/07/16 06:51:39;;;;;;;9.25;3.53;;;;;;;37.76;29.16;100277.69;5001532;28;20033;-71
2021/07/16 06:54:08;;;;;;;8.63;3.60;;;;;;;37.79;28.78;100275.47;5008351;28;20040;-70
2021/07/16 06:56:36;;;;;;;10.27;4.22;;;;;;;37.78;28.93;100276.50;5006298;28;20052;-70
2021/07/16 06:59:04;;;;;;;6.18;3.22;;;;;;;37.82;28.68;100271.50;5009921;28;20507;-69
2021/07/16 07:01:33;;;;;;;8.30;3.95;;;;;;;37.87;28.99;100267.25;5005430;28;20074;-69
2021/07/16 07:04:01;;;;;;;9.15;4.07;;;;;;;38.03;28.69;100273.91;4974666;28;20132;-70
2021/07/16 07:06:28;;;;;;;9.38;3.58;;;;;;;38.12;28.57;100271.03;4991480;28;20034;-70
2021/07/16 07:08:55;;;;;;;11.32;3.80;;;;;;;38.07;29.01;100264.28;5005704;28;20083;-70
2021/07/16 07:11:24;;;;;;;10.65;3.55;;;;;;;38.16;28.77;100268.78;5009073;28;20058;-69
2021/07/16 07:13:52;;;;;;;12.38;3.95;;;;;;;38.11;28.99;100273.94;5004987;28;20046;-69
2021/07/16 07:16:20;;;;;;;7.13;3.80;;;;;;;37.90;28.89;100268.81;5003846;28;20039;-69
2021/07/16 07:18:48;;;;;;;6.78;3.25;;;;;;;37.70;29.24;100264.56;5003141;28;20038;-70
2021/07/16 07:21:19;;;;;;;8.13;3.40;;;;;;;37.78;29.14;100268.22;5001417;28;20037;-70
2021/07/16 07:23:46;;;;;;;11.30;4.30;;;;;;;37.97;28.94;100264.38;5007034;28;20042;-69
2021/07/16 07:26:14;;;;;;;13.20;4.22;;;;;;;38.24;28.49;100271.59;5005135;28;20046;-70
2021/07/16 07:28:43;;;;;;;9.77;3.50;;;;;;;38.41;27.96;100270.63;5007534;28;20634;-70
2021/07/16 07:31:14;;;;;;;7.15;3.55;;;;;;;38.44;28.05;100277.69;5004742;28;20120;-70
2021/07/16 07:33:42;;;;;;;10.68;3.72;;;;;;;38.45;28.14;100272.03;5006765;28;20053;-70
2021/07/16 07:36:09;;;;;;;9.75;3.20;;;;;;;38.55;27.53;100271.91;5005688;28;20050;-70
2021/07/16 07:38:38;;;;;;;10.00;3.80;;;;;;;38.47;27.80;100261.66;5005909;28;20026;-69
2021/07/16 07:41:06;;;;;;;8.27;3.60;;;;;;;38.61;27.90;100273.97;5004277;28;20456;-70
2021/07/16 07:43:33;;;;;;;6.10;3.60;;;;;;;38.68;27.73;100273.13;5004680;28;20045;-70
2021/07/16 07:46:03;;;;;;;8.20;3.30;;;;;;;38.83;27.25;100267.81;5007978;28;20114;-70
2021/07/16 07:48:30;;;;;;;7.88;3.40;;;;;;;38.75;26.99;100270.56;5005316;28;20492;-70
2021/07/16 07:50:58;;;;;;;12.35;4.03;;;;;;;38.82;27.06;100266.09;5008544;28;20052;-70
2021/07/16 07:53:28;;;;;;;12.10;4.72;;;;;;;38.74;26.92;100271.59;5010506;28;20042;-70
2021/07/16 07:55:56;;;;;;;7.25;3.55;;;;;;;38.86;27.03;100259.19;5009236;28;20042;-70
2021/07/16 07:58:24;;;;;;;7.95;3.28;;;;;;;38.94;27.00;100267.53;5009649;28;20091;-70
2021/07/16 08:00:51;;;;;;;14.32;3.97;;;;;;;39.09;27.19;100264.09;5009048;28;20062;-70
2021/07/16 08:03:21;;;;;;;9.57;3.67;;;;;;;39.23;26.70;100261.50;5010634;28;20132;-70
2021/07/16 08:05:52;;;;;;;8.60;4.15;;;;;;;39.02;27.04;100273.06;5009867;28;20053;-70
2021/07/16 08:08:21;;;;;;;11.07;3.80;;;;;;;39.06;26.52;100271.66;5010011;28;20443;-70
2021/07/16 08:10:50;;;;;;;10.05;3.47;;;;;;;39.25;26.53;100275.16;5012591;28;20141;-70
2021/07/16 08:13:17;;;;;;;8.32;3.72;;;;;;;39.31;26.63;100277.22;5014378;28;20124;-70
2021/07/16 08:15:47;;;;;;;10.38;4.13;;;;;;;39.31;26.25;100277.22;5013634;28;20104;-71
2021/07/16 08:18:15;;;;;;;8.02;3.50;;;;;;;39.29;26.59;100276.53;5011773;28;20042;-70
2021/07/16 08:20:45;;;;;;;11.40;3.83;;;;;;;39.44;26.19;100283.13;5012201;28;20052;-70
2021/07/16 08:23:12;;;;;;;7.80;4.10;;;;;;;39.59;26.38;100281.34;5013950;28;20037;-70
2021/07/16 08:25:40;;;;;;;11.77;3.55;;;;;;;39.68;26.35;100288.59;5013739;28;20049;-70
2021/07/16 08:28:08;;;;;;;7.22;3.28;;;;;;;39.61;26.44;100284.81;5011640;28;20050;-70
2021/07/16 08:30:35;;;;;;;8.93;3.60;;;;;;;39.63;26.32;100284.63;4994303;28;20506;-70
2021/07/16 08:33:03;;;;;;;9.15;3.92;;;;;;;39.69;26.05;100281.16;4995684;28;20039;-70
2021/07/16 08:35:31;;;;;;;11.60;3.50;;;;;;;39.70;26.08;100285.66;5014181;28;20034;-70
2021/07/16 08:38:01;;;;;;;12.75;3.45;;;;;;;39.75;26.01;100289.63;5009942;28;20627;-70
2021/07/16 08:40:29;;;;;;;6.85;3.33;;;;;;;39.27;26.02;100284.97;5013775;28;20495;-70
2021/07/16 08:42:58;;;;;;;9.32;3.30;;;;;;;39.40;25.89;100285.34;5013398;28;20033;-70
2021/07/16 08:45:26;;;;;;;10.38;3.47;;;;;;;39.50;26.01;100281.56;5012941;28;20038;-70
2021/07/16 08:47:54;;;;;;;6.50;3.15;;;;;;;39.64;25.93;100278.94;5011591;28;20682;-71
2021/07/16 08:50:23;;;;;;;11.75;3.38;;;;;;;39.49;26.09;100279.81;5013768;28;20034;-69
2021/07/16 08:52:56;;;;;;;9.80;3.53;;;;;;;39.22;26.33;100272.72;5013023;28;20038;-70
2021/07/16 08:55:25;;;;;;;;;;;;;;;38.92;26.58;100268.75;5013958;28;20056;-70
2021/07/16 08:57:53;;;;;;;11.00;3.33;;;;;;;38.94;26.78;100273.03;5011727;28;20004;-70
2021/07/16 09:00:21;;;;;;;10.70;3.80;;;;;;;39.14;26.25;100276.34;5013887;28;20666;-70
2021/07/16 09:02:54;;;;;;;8.63;3.40;;;;;;;39.17;26.40;100276.00;5013354;28;20394;-70
2021/07/16 09:05:32;;;;;;;10.82;3.15;;;;;;;38.97;26.26;100274.63;5006221;28;20072;-70
2021/07/16 09:08:00;;;;;;;8.95;3.13;;;;;;;39.11;26.28;100279.47;4993231;28;20101;-70
2021/07/16 09:10:30;;;;;;;10.38;3.20;;;;;;;39.28;25.79;100272.88;5012744;28;20046;-70
2021/07/16 09:12:59;;;;;;;9.90;3.53;;;;;;;39.18;26.22;100283.25;4998536;28;20049;-70
2021/07/16 09:15:29;;;;;;;9.23;3.40;;;;;;;38.95;26.22;100272.00;4993600;28;20030;-69
2021/07/16 09:18:21;;;;;;;9.50;3.17;;;;;;;38.54;26.66;100279.31;5011984;28;20038;-70
2021/07/16 09:20:51;;;;;;;6.00;3.35;;;;;;;38.18;27.19;100266.75;5011205;28;20050;-70
2021/07/16 09:23:26;;;;;;;7.63;3.28;;;;;;;38.33;27.22;100266.97;4994087;28;20042;-70
2021/07/16 09:26:11;;;;;;;9.55;3.33;;;;;;;38.57;26.88;100267.94;5011553;28;20103;-70
2021/07/16 09:28:42;;;;;;;10.48;3.17;;;;;;;38.71;26.86;100274.72;5012164;28;20073;-69
2021/07/16 09:31:17;;;;;;;8.95;3.85;;;;;;;39.03;26.59;100260.97;5012208;28;20042;-70
2021/07/16 09:33:57;;;;;;;11.52;3.50;;;;;;;39.22;26.55;100272.72;5000626;28;20041;-69
2021/07/16 09:36:30;;;;;;;10.23;3.20;;;;;;;39.31;26.68;100271.69;4991677;28;20523;-70
2021/07/16 09:39:02;;;;;;;;;;;;;;;39.22;26.75;100268.06;4992296;28;20057;-69
2021/07/16 09:41:36;;;;;;;9.25;3.17;;;;;;;39.54;26.67;100271.84;4993881;28;19921;-69
2021/07/16 09:44:09;;;;;;;11.65;3.80;;;;;;;39.56;26.38;100270.66;4989130;28;20492;-69
2021/07/16 09:46:37;;;;;;;8.43;3.95;;;;;;;39.48;26.94;100273.44;5005458;28;20042;-69
2021/07/16 09:49:15;;;;;;;9.05;3.70;;;;;;;39.31;27.07;100275.31;5009136;28;20068;-70
2021/07/16 09:51:44;;;;;;;10.10;3.55;;;;;;;39.16;27.49;100274.28;5007153;28;20037;-69
2021/07/16 09:54:14;;;;;;;11.00;3.38;;;;;;;39.27;27.60;100273.06;5010972;28;20050;-70
2021/07/16 09:56:47;;;;;;;11.05;4.07;;;;;;;39.18;27.67;100268.59;5011363;28;20479;-70
2021/07/16 09:59:17;;;;;;;9.95;3.53;;;;;;;39.03;28.00;100277.56;5010098;28;20096;-70
2021/07/16 10:01:48;;;;;;;9.70;3.53;;;;;;;38.64;28.29;100273.66;5011619;28;20037;-69
2021/07/16 10:04:20;;;;;;;9.45;3.50;;;;;;;37.88;29.33;100274.47;4994673;28;20077;-71
2021/07/16 10:06:48;;;;;;;9.50;3.38;;;;;;;37.66;29.79;100272.28;5010756;28;20061;-69
2021/07/16 10:09:16;;;;;;;7.85;3.40;;;;;;;37.70;29.63;100279.19;5010559;28;20736;-69
2021/07/16 10:11:48;;;;;;;8.88;3.40;;;;;;;38.05;29.05;100272.72;5011455;28;20038;-69
2021/07/16 10:14:17;;;;;;;8.02;3.28;;;;;;;38.29;28.86;100278.34;4993531;28;20052;-69
2021/07/16 10:16:45;;;;;;;8.63;3.35;;;;;;;38.44;28.80;100270.28;5011409;28;20042;-69
2021/07/16 10:19:16;;;;;;;8.23;3.65;;;;;;;38.31;29.00;100277.31;5010273;28;20494;-70
2021/07/16 10:21:46;;;;;;;7.60;3.47;;;;;;;38.44;28.83;100278.56;4993619;28;20162;-69
2021/07/16 10:24:19;;;;;;;9.85;3.38;;;;;;;38.44;28.80;100272.19;4991190;28;20042;-69
2021/07/16 10:26:51;;;;;;;6.18;3.22;;;;;;;38.41;28.38;100284.41;4991294;28;20061;-70
2021/07/16 10:29:37;;;;;;;7.80;3.17;;;;;;;38.47;28.54;100274.59;5008955;28;20080;-70
2021/07/16 10:32:06;;;;;;;9.20;3.60;;;;;;;38.58;28.73;100277.09;5008139;28;20030;-70
2021/07/16 10:34:38;;;;;;;9.23;3.20;;;;;;;38.63;28.84;100286.59;5007383;28;20065;-70
2021/07/16 10:37:08;;;;;;;8.30;3.40;;;;;;;38.27;29.30;100276.75;5002554;28;20034;-70
2021/07/16 10:39:42;;;;;;;9.02;3.65;;;;;;;38.02;29.54;100280.41;4990177;28;20553;-70
2021/07/16 10:42:45;;;;;;;9.43;3.80;;;;;;;38.01;29.51;100286.97;5010623;28;20061;-70
2021/07/16 10:45:14;;;;;;;15.73;3.85;;;;;;;37.96;29.83;100281.06;5010931;28;20056;-70
2021/07/16 10:47:47;;;;;;;8.48;3.28;;;;;;;38.06;29.59;100288.25;5009141;28;20053;-69
2021/07/16 10:50:36;;;;;;;8.15;4.45;;;;;;;38.08;29.68;100286.16;5010351;28;20042;-70
2021/07/16 10:53:05;;;;;;;8.20;3.63;;;;;;;37.85;30.06;100293.25;4992121;28;20073;-70
2021/07/16 10:56:10;;;;;;;11.50;4.00;;;;;;;37.55;30.71;100291.81;5010174;28;20040;-69
2021/07/16 10:58:50;;;;;;;15.35;3.60;;;;;;;37.70;30.60;100287.47;5007041;28;20046;-70
2021/07/16 11:01:33;;;;;;;11.50;3.47;;;;;;;37.66;30.39;100280.56;5010603;28;20052;-70
2021/07/16 11:04:04;;;;;;;8.90;3.50;;;;;;;37.37;31.04;100279.97;5015613;28;20399;-70
2021/07/16 11:06:54;;;;;;;6.97;3.80;;;;;;;37.80;30.49;100276.34;5016040;28;20045;-69
2021/07/16 11:09:51;;;;;;;8.95;3.85;;;;;;;37.87;30.15;100271.91;5010214;28;20188;-69
2021/07/16 11:12:25;;;;;;;9.05;3.47;;;;;;;38.09;29.78;100276.88;4964236;28;20046;-70
2021/07/16 11:14:58;;;;;;;9.57;4.10;;;;;;;38.22;29.63;100270.88;5009968;28;20048;-69
2021/07/16 11:17:31;;;;;;;9.90;3.53;;;;;;;38.44;29.71;100270.28;5009908;28;20038;-70
2021/07/16 11:20:09;;;;;;;8.95;3.60;;;;;;;38.44;29.77;100272.19;5010427;28;20054;-70
2021/07/16 11:22:55;;;;;;;12.45;4.38;;;;;;;37.94;30.70;100267.47;5010444;28;20481;-70
2021/07/16 11:25:23;;;;;;;9.10;3.78;;;;;;;37.89;31.04;100267.94;5008389;28;20038;-69
2021/07/16 11:27:51;;;;;;;9.45;3.75;;;;;;;37.82;31.22;100266.88;5006021;28;20038;-69
2021/07/16 11:30:22;;;;;;;9.57;3.67;;;;;;;38.03;31.35;100269.25;5007093;28;20037;-70
2021/07/16 11:32:50;;;;;;;8.80;3.70;;;;;;;37.78;32.08;100265.47;5009702;28;20050;-70
2021/07/16 11:35:18;;;;;;;10.10;4.28;;;;;;;38.25;31.40;100268.69;5009703;28;20117;-70